Terminal Aerodrome Forecast
Issued by NWS Grand Forks, ND

Home | Current Version | Previous Version | Graphics & Text | Print | Product List | Glossary On
Versions: 1 2 3 4 5 6 7 8 9 10 11 12 13 14 15 16 17 18
226
FTUS43 KFGF 251732
TAFFAR
TAF
KFAR 251732Z 2518/2618 17022G32KT P6SM BKN090
     FM260000 17015KT P6SM BKN070
     FM260300 15009KT P6SM BKN110
     FM261600 26010KT P6SM SCT130=

USA.gov is the U.S. government's official web portal to all federal, state and local government web resources and services.